<?xml version='1.0' encoding='UTF-8'?>
<gpx xmlns="http://www.topografix.com/GPX/1/1" creator="www.balnam.be" version="1.1" xmlns:xsi="http://www.w3.org/2001/XMLSchema-instance" xsi:schemaLocation="http://www.topografix.com/GPX/1/1 http://www.topografix.com/GPX/1/1/gpx.xsd">
<trk>
<name>ngdbv1</name>
<cmt>r</cmt>
<desc>Bourseigne-Vieille Chemin n°1 Rue de la Croix / ? / Virée de Rinevaux</desc>
<link href="https://chemins.be/bourseignevieille/chemin/1"/><trkseg>
<trkpt lat="50.022480" lon="4.870834"><time>2026-05-02T22:08:40Z</time></trkpt>
<trkpt lat="50.022825" lon="4.870070"><time>2026-05-02T22:18:40Z</time></trkpt>
<trkpt lat="50.023928" lon="4.870667"><time>2026-05-02T22:28:40Z</time></trkpt>
<trkpt lat="50.024609" lon="4.871289"><time>2026-05-02T22:38:40Z</time></trkpt>
<trkpt lat="50.026223" lon="4.874446"><time>2026-05-02T22:48:40Z</time></trkpt>
<trkpt lat="50.026699" lon="4.874493"><time>2026-05-02T22:58:40Z</time></trkpt>
</trkseg></trk>
<trk>
<name>ngdbv1</name>
<cmt>d</cmt>
<desc>Bourseigne-Vieille Chemin n°1 Rue de la Croix / ? / Virée de Rinevaux</desc>
<link href="https://chemins.be/bourseignevieille/chemin/1"/><trkseg>
<trkpt lat="50.026699" lon="4.874493"><time>2026-05-02T22:58:40Z</time></trkpt>
<trkpt lat="50.026888" lon="4.874439"><time>2026-05-02T23:08:40Z</time></trkpt>
<trkpt lat="50.027246" lon="4.874889"><time>2026-05-02T23:18:40Z</time></trkpt>
</trkseg></trk>
<trk>
<name>ngdbv1</name>
<cmt>v</cmt>
<desc>Bourseigne-Vieille Chemin n°1 Rue de la Croix / ? / Virée de Rinevaux</desc>
<link href="https://chemins.be/bourseignevieille/chemin/1"/><trkseg>
<trkpt lat="50.027246" lon="4.874889"><time>2026-05-02T23:18:40Z</time></trkpt>
<trkpt lat="50.027423" lon="4.875449"><time>2026-05-02T23:28:40Z</time></trkpt>
<trkpt lat="50.028430" lon="4.879452"><time>2026-05-02T23:38:40Z</time></trkpt>
</trkseg></trk>
<trk>
<name>ngdbv1</name>
<cmt>r</cmt>
<desc>Bourseigne-Vieille Chemin n°1 Rue de la Croix / ? / Virée de Rinevaux</desc>
<link href="https://chemins.be/bourseignevieille/chemin/1"/><trkseg>
<trkpt lat="50.028430" lon="4.879452"><time>2026-05-02T23:38:40Z</time></trkpt>
<trkpt lat="50.028648" lon="4.882943"><time>2026-05-02T23:48:40Z</time></trkpt>
<trkpt lat="50.029417" lon="4.886291"><time>2026-05-02T23:58:40Z</time></trkpt>
<trkpt lat="50.030382" lon="4.888134"><time>2026-05-03T00:08:40Z</time></trkpt>
<trkpt lat="50.031946" lon="4.889469"><time>2026-05-03T00:18:40Z</time></trkpt>
<trkpt lat="50.032303" lon="4.890087"><time>2026-05-03T00:28:40Z</time></trkpt>
<trkpt lat="50.032416" lon="4.890814"><time>2026-05-03T00:38:40Z</time></trkpt>
<trkpt lat="50.032865" lon="4.891299"><time>2026-05-03T00:48:40Z</time></trkpt>
</trkseg></trk>
<trk>
<name>ngdbv1</name>
<cmt>d</cmt>
<desc>Bourseigne-Vieille Chemin n°1 Rue de la Croix / ? / Virée de Rinevaux</desc>
<link href="https://chemins.be/bourseignevieille/chemin/1"/><trkseg>
<trkpt lat="50.032865" lon="4.891299"><time>2026-05-03T00:48:40Z</time></trkpt>
<trkpt lat="50.033201" lon="4.892205"><time>2026-05-03T00:58:40Z</time></trkpt>
</trkseg></trk>
<trk>
<name>ngdbv1</name>
<cmt>v</cmt>
<desc>Bourseigne-Vieille Chemin n°1 Rue de la Croix / ? / Virée de Rinevaux</desc>
<link href="https://chemins.be/bourseignevieille/chemin/1"/><trkseg>
<trkpt lat="50.033201" lon="4.892205"><time>2026-05-03T00:58:40Z</time></trkpt>
<trkpt lat="50.032901" lon="4.892908"><time>2026-05-03T01:08:40Z</time></trkpt>
<trkpt lat="50.032240" lon="4.893321"><time>2026-05-03T01:18:40Z</time></trkpt>
<trkpt lat="50.031898" lon="4.894088"><time>2026-05-03T01:28:40Z</time></trkpt>
<trkpt lat="50.031165" lon="4.897095"><time>2026-05-03T01:38:40Z</time></trkpt>
<trkpt lat="50.030647" lon="4.900090"><time>2026-05-03T01:48:40Z</time></trkpt>
<trkpt lat="50.030006" lon="4.902693"><time>2026-05-03T01:58:40Z</time></trkpt>
<trkpt lat="50.029750" lon="4.905468"><time>2026-05-03T02:08:40Z</time></trkpt>
<trkpt lat="50.029477" lon="4.910141"><time>2026-05-03T02:18:40Z</time></trkpt>
<trkpt lat="50.030295" lon="4.911950"><time>2026-05-03T02:28:40Z</time></trkpt>
<trkpt lat="50.030641" lon="4.914969"><time>2026-05-03T02:38:40Z</time></trkpt>
<trkpt lat="50.030699" lon="4.917929"><time>2026-05-03T02:48:40Z</time></trkpt>
</trkseg>
</trk>
</gpx>